createdAt,value
2022-11-29T00:01:31.854Z,21.50
2022-11-29T00:03:59.462Z,21.85
2022-11-29T00:06:29.585Z,22.05
2022-11-29T00:08:58.964Z,20.30
2022-11-29T00:11:51.224Z,22.48
2022-11-29T00:14:19.746Z,21.60
2022-11-29T00:16:52.249Z,21.65
2022-11-29T00:19:19.828Z,22.55
2022-11-29T00:21:47.101Z,21.98
2022-11-29T00:24:14.512Z,21.95
2022-11-29T00:26:42.077Z,24.85
2022-11-29T00:29:10.822Z,24.15
2022-11-29T00:31:38.202Z,22.92
2022-11-29T00:34:09.326Z,22.83
2022-11-29T00:36:36.959Z,23.20
2022-11-29T00:39:05.844Z,21.60
2022-11-29T00:41:33.106Z,22.15
2022-11-29T00:44:01.008Z,24.20
2022-11-29T00:46:28.327Z,21.90
2022-11-29T00:48:55.620Z,21.73
2022-11-29T00:51:22.838Z,22.58
2022-11-29T00:53:49.904Z,20.88
2022-11-29T00:56:17.088Z,20.77
2022-11-29T00:58:44.576Z,21.27
2022-11-29T01:01:12.198Z,22.83
2022-11-29T01:03:39.953Z,23.33
2022-11-29T01:06:12.880Z,22.83
2022-11-29T01:08:40.777Z,22.13
2022-11-29T01:11:20.257Z,22.38
2022-11-29T01:13:48.247Z,26.52
2022-11-29T01:16:16.931Z,22.92
2022-11-29T01:18:44.484Z,23.48
2022-11-29T01:21:18.228Z,23.45
2022-11-29T01:23:46.425Z,22.33
2022-11-29T01:26:19.533Z,23.65
2022-11-29T01:28:50.053Z,24.02
2022-11-29T01:31:32.693Z,23.42
2022-11-29T01:34:02.070Z,22.63
2022-11-29T01:36:30.190Z,22.20
2022-11-29T01:39:01.548Z,22.55
2022-11-29T01:41:32.262Z,23.05
2022-11-29T01:44:07.329Z,23.33
2022-11-29T01:46:43.575Z,23.92
2022-11-29T01:49:16.264Z,22.77
2022-11-29T01:51:51.206Z,23.95
2022-11-29T01:54:19.453Z,24.25
2022-11-29T01:56:49.406Z,25.02
2022-11-29T01:59:20.648Z,22.85
2022-11-29T02:01:48.273Z,24.38
2022-11-29T02:04:18.018Z,21.42
2022-11-29T02:06:46.086Z,23.75
2022-11-29T02:09:22.090Z,24.45
2022-11-29T02:12:16.790Z,25.15
2022-11-29T02:15:10.379Z,23.85
2022-11-29T02:17:48.669Z,24.67
2022-11-29T02:20:41.488Z,25.20
2022-11-29T02:23:17.344Z,25.10
2022-11-29T02:25:59.752Z,23.35
2022-11-29T02:29:00.212Z,25.52
2022-11-29T02:31:55.363Z,22.50
2022-11-29T02:34:28.491Z,23.40
2022-11-29T02:37:36.555Z,24.65
2022-11-29T02:40:33.984Z,23.27
2022-11-29T02:43:32.926Z,21.67
2022-11-29T02:46:21.027Z,25.25
2022-11-29T02:49:03.711Z,24.60
2022-11-29T02:51:40.145Z,25.20
2022-11-29T02:54:10.249Z,23.52
2022-11-29T02:56:45.544Z,25.75
2022-11-29T03:02:09.898Z,21.10
2022-11-29T03:04:56.921Z,26.27
2022-11-29T03:07:46.997Z,22.58
2022-11-29T03:10:39.087Z,26.77
2022-11-29T03:13:30.061Z,25.73
2022-11-29T03:16:16.487Z,25.75
2022-11-29T03:19:04.290Z,23.48
2022-11-29T03:21:45.411Z,23.92
2022-11-29T03:24:26.295Z,25.77
2022-11-29T03:27:03.890Z,25.00
2022-11-29T03:29:45.030Z,24.52
2022-11-29T03:32:20.813Z,24.65
2022-11-29T03:34:57.506Z,29.25
2022-11-29T03:37:50.911Z,26.63
2022-11-29T03:40:24.869Z,24.60
2022-11-29T03:43:04.543Z,22.80
2022-11-29T03:45:42.761Z,25.45
2022-11-29T03:48:25.053Z,23.15
2022-11-29T03:50:54.247Z,23.70
2022-11-29T03:53:27.389Z,28.25
2022-11-29T03:56:03.012Z,25.13
2022-11-29T03:58:41.859Z,25.45
2022-11-29T04:01:30.542Z,23.05
2022-11-29T04:04:45.803Z,28.30
2022-11-29T04:07:57.353Z,25.73
2022-11-29T04:10:46.309Z,25.58
2022-11-29T04:13:29.510Z,24.02
2022-11-29T04:16:22.102Z,26.17
2022-11-29T04:19:11.804Z,26.23
2022-11-29T04:21:57.769Z,25.75
2022-11-29T04:24:59.487Z,26.42
2022-11-29T04:27:52.812Z,28.02
2022-11-29T04:30:21.702Z,23.67
2022-11-29T04:33:29.995Z,26.52
2022-11-29T04:36:16.398Z,24.83
2022-11-29T04:39:08.394Z,27.95
2022-11-29T04:41:58.711Z,25.88
2022-11-29T04:44:32.592Z,26.08
2022-11-29T04:47:18.949Z,25.60
2022-11-29T04:50:23.232Z,26.30
2022-11-29T04:53:31.724Z,25.63
2022-11-29T04:56:08.890Z,23.95
2022-11-29T04:58:55.157Z,25.77
2022-11-29T05:01:46.982Z,25.30
2022-11-29T05:04:41.698Z,24.88
2022-11-29T05:07:24.029Z,25.83
2022-11-29T05:10:22.573Z,26.02
2022-11-29T05:13:15.215Z,26.38
2022-11-29T05:16:07.740Z,24.92
2022-11-29T05:19:12.500Z,24.05
2022-11-29T05:21:50.570Z,25.95
2022-11-29T05:24:17.650Z,24.80
2022-11-29T05:27:09.356Z,26.35
2022-11-29T05:29:36.350Z,26.42
2022-11-29T05:32:03.344Z,27.60
2022-11-29T05:34:50.924Z,25.67
2022-11-29T05:37:27.271Z,27.02
2022-11-29T05:40:16.271Z,26.60
2022-11-29T05:43:13.121Z,26.85
2022-11-29T05:46:03.389Z,24.42
2022-11-29T05:48:58.728Z,24.60
2022-11-29T05:51:59.403Z,26.90
2022-11-29T05:54:38.455Z,25.33
2022-11-29T05:57:24.804Z,28.17
2022-11-29T05:59:52.155Z,27.10
2022-11-29T06:02:28.307Z,27.92
2022-11-29T06:05:17.545Z,27.02
2022-11-29T06:08:03.718Z,29.38
2022-11-29T06:10:36.160Z,27.10
2022-11-29T06:13:19.079Z,28.70
2022-11-29T06:16:17.358Z,28.95
2022-11-29T06:18:56.986Z,27.50
2022-11-29T06:21:40.962Z,27.60
2022-11-29T06:24:42.610Z,25.70
2022-11-29T06:27:48.589Z,26.55
2022-11-29T06:30:20.943Z,25.90
2022-11-29T06:33:01.524Z,25.95
2022-11-29T06:35:46.861Z,28.85
2022-11-29T06:38:22.994Z,26.20
2022-11-29T06:40:50.995Z,25.45
2022-11-29T06:43:18.642Z,27.40
2022-11-29T06:45:53.484Z,27.52
2022-11-29T06:48:29.836Z,25.52
2022-11-29T06:51:07.721Z,28.63
2022-11-29T06:53:48.997Z,31.35
2022-11-29T06:56:41.007Z,27.10
2022-11-29T06:59:14.058Z,28.73
2022-11-29T07:01:59.515Z,28.42
2022-11-29T07:05:03.251Z,26.52
2022-11-29T07:07:31.621Z,29.67
2022-11-29T07:09:59.859Z,27.38
2022-11-29T07:12:27.600Z,29.13
2022-11-29T07:14:55.095Z,26.77
2022-11-29T07:17:53.986Z,27.58
2022-11-29T07:20:30.888Z,26.23
2022-11-29T07:23:27.256Z,28.35
2022-11-29T07:26:17.314Z,27.67
2022-11-29T07:29:02.992Z,27.05
2022-11-29T07:34:28.614Z,26.95
2022-11-29T07:37:01.717Z,26.95
2022-11-29T07:39:49.917Z,29.45
2022-11-29T07:42:37.536Z,27.13
2022-11-29T07:45:23.351Z,27.13
2022-11-29T07:47:50.704Z,28.33
2022-11-29T07:50:18.019Z,28.42
2022-11-29T07:52:45.282Z,29.30
2022-11-29T07:55:19.249Z,28.20
2022-11-29T07:57:50.354Z,27.58
2022-11-29T08:00:19.363Z,26.98
2022-11-29T08:02:47.580Z,28.88
2022-11-29T08:05:14.873Z,27.55
2022-11-29T08:07:42.414Z,28.25
2022-11-29T08:10:12.915Z,29.42
2022-11-29T08:12:50.360Z,30.40
2022-11-29T08:15:22.523Z,30.08
2022-11-29T08:17:50.062Z,31.52
2022-11-29T08:20:17.749Z,28.40
2022-11-29T08:22:45.027Z,26.77
2022-11-29T08:25:12.482Z,27.60
2022-11-29T08:27:40.023Z,28.92
2022-11-29T08:30:08.284Z,26.02
2022-11-29T08:32:35.544Z,28.95
2022-11-29T08:35:04.448Z,28.40
2022-11-29T08:37:31.649Z,28.55
2022-11-29T08:39:59.265Z,28.13
2022-11-29T08:42:26.500Z,29.17
2022-11-29T08:44:53.813Z,27.63
2022-11-29T08:47:39.087Z,27.63
2022-11-29T08:50:17.487Z,25.80
2022-11-29T08:53:05.271Z,30.00
2022-11-29T08:55:40.947Z,28.67
2022-11-29T08:58:10.854Z,30.95
2022-11-29T09:00:39.316Z,26.55
2022-11-29T09:03:26.404Z,30.63
2022-11-29T09:05:53.964Z,27.45
2022-11-29T09:08:21.424Z,27.90
2022-11-29T09:10:49.029Z,27.58
2022-11-29T09:13:19.039Z,27.15
2022-11-29T09:15:46.363Z,29.17
2022-11-29T09:18:13.612Z,29.00
2022-11-29T09:20:44.230Z,28.83
2022-11-29T09:23:12.477Z,30.08
2022-11-29T09:25:39.754Z,30.65
2022-11-29T09:28:07.581Z,29.85
2022-11-29T09:30:36.902Z,30.02
2022-11-29T09:33:05.762Z,29.73
2022-11-29T09:35:33.973Z,27.90
2022-11-29T09:38:01.309Z,33.28
2022-11-29T09:40:39.207Z,28.73
2022-11-29T09:43:24.643Z,27.85
2022-11-29T09:46:16.346Z,27.42
2022-11-29T09:49:09.323Z,30.92
2022-11-29T09:51:53.842Z,31.63
2022-11-29T09:54:45.644Z,28.70
2022-11-29T09:57:14.343Z,28.55
2022-11-29T09:59:46.553Z,29.88
2022-11-29T10:02:42.480Z,28.35
2022-11-29T10:05:30.293Z,32.25
2022-11-29T10:08:19.765Z,27.90
2022-11-29T10:10:49.688Z,28.08
2022-11-29T10:13:34.534Z,30.00
2022-11-29T10:16:41.841Z,30.20
2022-11-29T10:19:15.733Z,29.00
2022-11-29T10:21:54.542Z,30.95
2022-11-29T10:24:23.817Z,32.30
2022-11-29T10:26:51.252Z,28.70
2022-11-29T10:29:18.526Z,29.17
2022-11-29T10:31:49.736Z,31.60
2022-11-29T10:34:18.566Z,30.13
2022-11-29T10:36:46.195Z,31.80
2022-11-29T10:39:37.513Z,31.58
2022-11-29T10:42:26.207Z,32.35
2022-11-29T10:44:53.463Z,29.52
2022-11-29T10:47:20.623Z,31.67
2022-11-29T10:49:47.784Z,30.98
2022-11-29T10:52:22.862Z,30.20
2022-11-29T10:54:56.219Z,27.98
2022-11-29T10:57:24.138Z,31.95
2022-11-29T11:00:04.309Z,29.52
2022-11-29T11:02:32.225Z,31.10
2022-11-29T11:05:00.075Z,31.02
2022-11-29T11:07:36.105Z,32.58
2022-11-29T11:10:22.866Z,31.10
2022-11-29T11:13:05.630Z,28.98
2022-11-29T11:15:33.346Z,29.98
2022-11-29T11:18:05.478Z,34.42
2022-11-29T11:20:39.497Z,30.13
2022-11-29T11:23:24.042Z,29.20
2022-11-29T11:25:57.616Z,28.10
2022-11-29T11:28:28.719Z,29.67
2022-11-29T11:31:00.472Z,28.38
2022-11-29T11:33:36.694Z,28.60
2022-11-29T11:36:26.507Z,29.92
2022-11-29T11:39:09.791Z,30.88
2022-11-29T11:42:00.281Z,28.98
2022-11-29T11:44:53.672Z,31.50
2022-11-29T11:47:25.277Z,31.65
2022-11-29T11:50:04.414Z,30.02
2022-11-29T11:52:40.532Z,29.85
2022-11-29T11:55:24.740Z,27.42
2022-11-29T11:58:19.064Z,31.58
2022-11-29T12:01:04.998Z,32.28
2022-11-29T12:04:06.845Z,29.83
2022-11-29T12:06:44.071Z,32.95
2022-11-29T12:09:45.068Z,31.30
2022-11-29T12:12:27.298Z,28.95
2022-11-29T12:15:06.129Z,29.88
2022-11-29T12:17:50.969Z,32.53
2022-11-29T12:20:29.466Z,33.27
2022-11-29T12:23:39.430Z,31.80
2022-11-29T12:26:48.820Z,30.27
2022-11-29T12:29:17.626Z,32.15
2022-11-29T12:32:02.611Z,32.13
2022-11-29T12:35:00.846Z,33.80
2022-11-29T12:37:50.854Z,29.48
2022-11-29T12:40:35.948Z,36.92
2022-11-29T12:43:12.591Z,33.67
2022-11-29T12:46:12.282Z,34.55
2022-11-29T12:49:27.080Z,30.63
2022-11-29T12:52:06.435Z,33.78
2022-11-29T12:54:45.577Z,36.15
2022-11-29T12:57:40.606Z,32.95
2022-11-29T13:00:14.962Z,34.22
2022-11-29T13:03:01.149Z,30.60
2022-11-29T13:05:44.884Z,32.35
2022-11-29T13:08:34.759Z,35.22
2022-11-29T13:11:19.668Z,33.25
2022-11-29T13:14:13.714Z,31.95
2022-11-29T13:16:57.799Z,36.28
2022-11-29T13:19:46.616Z,34.50
2022-11-29T13:22:21.430Z,31.25
2022-11-29T13:24:49.083Z,35.08
2022-11-29T13:27:36.921Z,35.55
2022-11-29T13:30:05.335Z,31.38
2022-11-29T13:32:36.778Z,36.22
2022-11-29T13:35:17.173Z,33.92
2022-11-29T13:37:58.384Z,35.08
2022-11-29T13:40:42.142Z,36.13
2022-11-29T13:43:21.130Z,32.42
2022-11-29T13:45:58.933Z,35.00
2022-11-29T13:48:28.909Z,34.40
2022-11-29T13:50:58.253Z,33.80
2022-11-29T13:53:45.247Z,34.45
2022-11-29T13:56:33.774Z,33.60
2022-11-29T13:59:05.594Z,34.17
2022-11-29T14:01:47.450Z,31.05
2022-11-29T14:04:28.576Z,34.05
2022-11-29T14:07:05.365Z,34.38
2022-11-29T14:09:35.064Z,35.05
2022-11-29T14:12:17.503Z,32.88
2022-11-29T14:14:58.985Z,32.85
2022-11-29T14:17:47.097Z,30.17
2022-11-29T14:20:23.018Z,32.95
2022-11-29T14:23:08.349Z,34.28
2022-11-29T14:25:51.484Z,34.00
2022-11-29T14:28:22.372Z,33.88
2022-11-29T14:31:03.461Z,31.23
2022-11-29T14:34:14.313Z,32.97
2022-11-29T14:36:49.246Z,34.72
2022-11-29T14:39:32.176Z,33.00
2022-11-29T14:42:22.038Z,32.22
2022-11-29T14:44:51.553Z,30.10
2022-11-29T14:47:30.142Z,29.95
2022-11-29T14:50:00.050Z,30.40
2022-11-29T14:52:39.272Z,33.80
2022-11-29T14:55:30.748Z,30.67
2022-11-29T14:57:58.200Z,29.30
2022-11-29T15:00:29.844Z,34.17
2022-11-29T15:03:01.443Z,30.00
2022-11-29T15:05:32.799Z,31.05
2022-11-29T15:08:19.088Z,32.50
2022-11-29T15:11:00.079Z,31.77
2022-11-29T15:13:33.636Z,31.45
2022-11-29T15:16:18.746Z,33.83
2022-11-29T15:19:01.003Z,32.85
2022-11-29T15:21:37.332Z,29.90
2022-11-29T15:24:15.888Z,32.13
2022-11-29T15:27:03.682Z,29.70
2022-11-29T15:29:31.891Z,31.80
2022-11-29T15:32:05.906Z,30.20
2022-11-29T15:34:35.590Z,32.38
2022-11-29T15:37:03.029Z,32.63
2022-11-29T15:39:37.611Z,32.30
2022-11-29T15:42:12.317Z,31.73
2022-11-29T15:44:46.520Z,33.15
2022-11-29T15:47:25.666Z,28.65
2022-11-29T15:49:54.645Z,32.90
2022-11-29T15:52:37.913Z,32.20
2022-11-29T15:55:11.194Z,31.45
2022-11-29T15:57:50.851Z,34.33
2022-11-29T16:00:21.951Z,30.98
2022-11-29T16:02:58.338Z,33.33
2022-11-29T16:05:37.265Z,30.20
2022-11-29T16:08:14.724Z,33.80
2022-11-29T16:10:50.635Z,30.70
2022-11-29T16:13:39.518Z,30.83
2022-11-29T16:16:15.884Z,34.30
2022-11-29T16:18:45.546Z,32.72
2022-11-29T16:21:32.870Z,34.72
2022-11-29T16:24:13.112Z,32.75
2022-11-29T16:26:44.052Z,34.55
2022-11-29T16:29:30.473Z,32.10
2022-11-29T16:31:58.117Z,34.33
2022-11-29T16:34:33.362Z,34.60
2022-11-29T16:37:06.882Z,36.67
2022-11-29T16:39:37.004Z,33.83
2022-11-29T16:42:26.978Z,37.35
2022-11-29T16:45:07.814Z,33.17
2022-11-29T16:47:53.204Z,33.45
2022-11-29T16:50:23.414Z,32.15
2022-11-29T16:52:56.568Z,33.90
2022-11-29T16:55:27.429Z,33.83
2022-11-29T16:57:54.662Z,35.55
2022-11-29T17:00:32.393Z,34.45
2022-11-29T17:03:00.620Z,32.95
2022-11-29T17:05:28.055Z,33.92
2022-11-29T17:07:55.399Z,31.42
2022-11-29T17:10:25.609Z,33.85
2022-11-29T17:12:53.044Z,33.47
2022-11-29T17:15:20.263Z,33.80
2022-11-29T17:17:47.619Z,32.92
2022-11-29T17:20:15.167Z,32.88
2022-11-29T17:22:42.417Z,33.92
2022-11-29T17:25:11.084Z,30.73
2022-11-29T17:27:38.445Z,32.72
2022-11-29T17:30:07.286Z,32.53
2022-11-29T17:32:36.004Z,34.50
2022-11-29T17:35:03.468Z,33.58
2022-11-29T17:37:31.146Z,31.05
2022-11-29T17:39:58.425Z,34.30
2022-11-29T17:42:25.763Z,33.35
2022-11-29T17:44:52.887Z,36.95
2022-11-29T17:47:20.092Z,32.25
2022-11-29T17:49:47.474Z,35.67
2022-11-29T17:52:15.195Z,35.28
2022-11-29T17:54:42.365Z,35.17
2022-11-29T17:57:09.681Z,34.03
2022-11-29T17:59:36.645Z,32.70
2022-11-29T18:02:04.589Z,35.17
2022-11-29T18:04:32.170Z,35.90
2022-11-29T18:06:59.596Z,34.03
2022-11-29T18:09:26.822Z,33.75
2022-11-29T18:11:54.006Z,37.13
2022-11-29T18:14:24.105Z,37.45
2022-11-29T18:16:51.927Z,34.30
2022-11-29T18:19:22.192Z,32.47
2022-11-29T18:21:50.522Z,33.78
2022-11-29T18:24:18.099Z,32.30
2022-11-29T18:26:45.527Z,33.50
2022-11-29T18:29:12.852Z,34.85
2022-11-29T18:31:45.141Z,36.72
2022-11-29T18:34:13.844Z,33.63
2022-11-29T18:36:46.926Z,34.83
2022-11-29T18:39:19.280Z,32.92
2022-11-29T18:41:48.879Z,34.63
2022-11-29T18:44:18.209Z,34.40
2022-11-29T18:46:46.277Z,34.60
2022-11-29T18:49:16.256Z,32.00
2022-11-29T18:51:45.564Z,35.35
2022-11-29T18:54:14.298Z,34.92
2022-11-29T18:56:42.095Z,36.97
2022-11-29T18:59:11.969Z,35.90
2022-11-29T19:01:42.857Z,33.05
2022-11-29T19:04:18.260Z,34.17
2022-11-29T19:06:46.096Z,33.03
2022-11-29T19:09:21.796Z,34.47
2022-11-29T19:11:50.151Z,35.17
2022-11-29T19:14:18.048Z,36.92
2022-11-29T19:16:48.362Z,35.55
2022-11-29T19:19:15.640Z,35.40
2022-11-29T19:21:43.174Z,36.08
2022-11-29T19:24:15.211Z,33.92
2022-11-29T19:26:44.859Z,34.28
2022-11-29T19:29:16.354Z,33.33
2022-11-29T19:31:43.820Z,34.88
2022-11-29T19:34:11.595Z,33.38
2022-11-29T19:36:43.638Z,35.35
2022-11-29T19:39:13.337Z,35.90
2022-11-29T19:41:43.398Z,34.60
2022-11-29T19:44:11.440Z,32.70
2022-11-29T19:46:44.955Z,33.63
2022-11-29T19:49:12.586Z,32.42
2022-11-29T19:51:40.309Z,32.97
2022-11-29T19:54:09.987Z,38.03
2022-11-29T19:56:37.286Z,35.65
2022-11-29T19:59:05.788Z,36.40
2022-11-29T20:01:40.276Z,36.33
2022-11-29T20:04:07.988Z,33.33
2022-11-29T20:06:35.106Z,30.45
2022-11-29T20:09:02.628Z,32.53
2022-11-29T20:11:30.169Z,32.15
2022-11-29T20:13:59.544Z,33.05
2022-11-29T20:16:28.438Z,32.88
2022-11-29T20:18:56.257Z,34.35
2022-11-29T20:21:27.382Z,32.85
2022-11-29T20:24:03.892Z,32.42
2022-11-29T20:26:33.651Z,33.67
2022-11-29T20:29:02.373Z,32.90
2022-11-29T20:31:30.268Z,31.98
2022-11-29T20:33:57.715Z,32.15
2022-11-29T20:36:58.470Z,29.83
2022-11-29T20:42:32.242Z,33.30
2022-11-29T20:45:01.810Z,32.05
2022-11-29T20:47:58.107Z,32.13
2022-11-29T20:50:27.003Z,33.05
2022-11-29T20:53:23.361Z,33.00
2022-11-29T20:55:50.479Z,31.38
2022-11-29T20:58:18.674Z,30.92
2022-11-29T21:00:46.390Z,32.75
2022-11-29T21:03:17.287Z,32.60
2022-11-29T21:05:44.846Z,33.28
2022-11-29T21:08:12.632Z,33.65
2022-11-29T21:10:39.944Z,33.78
2022-11-29T21:13:08.281Z,34.75
2022-11-29T21:15:36.027Z,38.50
2022-11-29T21:18:03.408Z,36.03
2022-11-29T21:20:30.920Z,35.03
2022-11-29T21:23:04.031Z,33.28
2022-11-29T21:25:58.494Z,33.53
2022-11-29T21:28:32.354Z,33.00
2022-11-29T21:30:59.735Z,31.42
2022-11-29T21:33:27.601Z,33.50
2022-11-29T21:35:58.364Z,34.63
2022-11-29T21:38:27.205Z,37.17
2022-11-29T21:40:54.554Z,32.20
2022-11-29T21:43:32.706Z,35.95
2022-11-29T21:46:09.711Z,34.13
2022-11-29T21:48:37.973Z,34.17
2022-11-29T21:51:07.717Z,36.33
2022-11-29T21:53:36.941Z,32.95
2022-11-29T21:56:09.224Z,34.50
2022-11-29T21:58:37.694Z,36.38
2022-11-29T22:01:15.089Z,36.95
2022-11-29T22:03:43.759Z,35.63
2022-11-29T22:06:19.018Z,34.80
2022-11-29T22:11:17.135Z,31.98
2022-11-29T22:14:11.675Z,34.58
2022-11-29T22:16:38.793Z,36.80
2022-11-29T22:19:05.913Z,39.50
2022-11-29T22:21:33.137Z,36.72
2022-11-29T22:24:00.367Z,39.58
2022-11-29T22:26:28.975Z,38.88
2022-11-29T22:28:56.052Z,37.60
2022-11-29T22:31:23.387Z,37.40
2022-11-29T22:33:53.419Z,37.85
2022-11-29T22:36:20.989Z,37.38
2022-11-29T22:38:48.785Z,37.42
2022-11-29T22:41:16.772Z,38.17
2022-11-29T22:43:45.648Z,37.17
2022-11-29T22:46:21.049Z,36.95
2022-11-29T22:48:52.648Z,35.50
2022-11-29T22:51:28.317Z,37.28
2022-11-29T22:53:57.448Z,39.15
2022-11-29T22:56:27.334Z,38.33
2022-11-29T22:58:54.902Z,37.22
2022-11-29T23:01:24.332Z,38.47
2022-11-29T23:03:56.521Z,40.65
2022-11-29T23:06:29.049Z,39.15
2022-11-29T23:08:58.677Z,39.95
2022-11-29T23:11:28.774Z,42.15
2022-11-29T23:13:56.826Z,39.70
2022-11-29T23:16:27.268Z,38.90
2022-11-29T23:18:56.170Z,40.50
2022-11-29T23:21:26.805Z,39.35
2022-11-29T23:23:56.545Z,42.55
2022-11-29T23:26:40.343Z,36.80
2022-11-29T23:29:13.123Z,41.97
2022-11-29T23:31:40.585Z,40.78
2022-11-29T23:34:10.915Z,43.75
2022-11-29T23:36:38.205Z,37.55
2022-11-29T23:39:06.917Z,39.17
2022-11-29T23:41:38.256Z,37.42
2022-11-29T23:44:06.364Z,42.03
2022-11-29T23:46:35.182Z,39.72
2022-11-29T23:49:02.413Z,37.92
2022-11-29T23:51:29.785Z,38.55
2022-11-29T23:53:57.196Z,38.28
2022-11-29T23:56:24.442Z,39.03
2022-11-29T23:58:51.622Z,38.75
